Time;durP1;ratioP1;P1;durP2;ratioP2;P2;SDS_P1;SDS_P2;PMS_P1;PMS_P2;Temp;Humidity;BMP_temperature;BMP_pressure;BME280_temperature;BME280_humidity;BME280_pressure;Samples;Min_cycle;Max_cycle;Signal;HPM_P1;HPM_P2
2023/09/16 00:00:33;;;;;;;22.40;12.73;;;;;;;25.15;45.33;101503.97;5029692;28;20239;-69
2023/09/16 00:03:05;;;;;;;23.63;13.65;;;;;;;25.28;45.24;101505.88;5028830;28;20075;-69
2023/09/16 00:05:30;;;;;;;19.73;12.48;;;;;;;25.28;45.43;101503.19;5029475;28;20416;-69
2023/09/16 00:07:56;;;;;;;18.83;12.00;;;;;;;25.20;45.71;101507.22;5007597;28;20376;-69
2023/09/16 00:10:21;;;;;;;27.90;12.45;;;;;;;25.32;45.42;101504.72;5008001;28;20034;-71
2023/09/16 00:12:47;;;;;;;23.55;13.38;;;;;;;25.23;45.56;101501.66;5008981;28;20397;-71
2023/09/16 00:15:12;;;;;;;19.77;12.20;;;;;;;25.30;45.77;101495.97;4992437;28;20021;-71
2023/09/16 00:17:37;;;;;;;21.50;12.50;;;;;;;25.08;45.66;101499.09;5008448;28;20079;-68
2023/09/16 00:20:11;;;;;;;23.73;13.20;;;;;;;24.89;46.00;101500.19;5008345;28;20026;-68
2023/09/16 00:22:37;;;;;;;21.83;12.57;;;;;;;24.94;46.42;101500.78;5009016;28;20455;-68
2023/09/16 00:25:04;;;;;;;22.25;12.25;;;;;;;25.16;45.25;101495.00;5008057;28;20054;-68
2023/09/16 00:27:29;;;;;;;21.85;12.40;;;;;;;24.87;45.71;101499.44;5009876;28;20109;-68
2023/09/16 00:29:55;;;;;;;21.95;13.73;;;;;;;25.01;45.48;101495.94;5009752;28;20048;-68
2023/09/16 00:32:20;;;;;;;20.08;12.48;;;;;;;25.08;45.67;101502.63;5009392;28;20097;-68
2023/09/16 00:34:45;;;;;;;24.55;12.85;;;;;;;24.99;46.27;101497.81;5008684;28;20026;-68
2023/09/16 00:37:11;;;;;;;22.45;13.90;;;;;;;25.13;45.20;101489.84;5009650;28;20037;-68
2023/09/16 00:39:38;;;;;;;23.67;13.80;;;;;;;24.97;45.96;101499.75;4991491;28;20030;-68
2023/09/16 00:42:03;;;;;;;20.95;12.70;;;;;;;25.28;45.28;101503.19;5008477;28;20064;-68
2023/09/16 00:44:29;;;;;;;24.83;13.52;;;;;;;25.09;45.49;101507.03;5009764;28;20057;-68
2023/09/16 00:46:54;;;;;;;24.88;13.82;;;;;;;24.84;45.98;101511.19;5007372;28;20061;-68
2023/09/16 00:49:20;;;;;;;21.13;13.48;;;;;;;25.05;46.20;101513.50;5009804;28;20032;-68
2023/09/16 00:51:45;;;;;;;23.42;13.27;;;;;;;25.13;45.69;101500.53;5008685;28;20018;-68
2023/09/16 00:54:11;;;;;;;23.77;14.48;;;;;;;25.38;45.20;101499.91;5007369;28;20568;-69
2023/09/16 00:56:37;;;;;;;23.75;13.13;;;;;;;24.98;45.68;101506.81;5008464;28;20053;-68
2023/09/16 00:59:03;;;;;;;20.35;11.90;;;;;;;25.12;45.70;101505.97;4995528;28;20038;-69
2023/09/16 01:01:29;;;;;;;26.13;12.98;;;;;;;24.85;46.23;101510.22;5011754;28;20115;-69
2023/09/16 01:03:56;;;;;;;24.73;13.40;;;;;;;25.35;45.54;101493.91;5013365;28;20029;-69
2023/09/16 01:06:22;;;;;;;21.80;13.82;;;;;;;25.48;44.77;101502.84;5012269;28;20026;-68
2023/09/16 01:08:47;;;;;;;20.67;12.65;;;;;;;25.22;45.63;101499.09;5011607;28;20448;-69
2023/09/16 01:11:13;;;;;;;23.73;14.13;;;;;;;25.27;45.59;101496.16;5011543;28;20437;-68
2023/09/16 01:13:39;;;;;;;21.95;13.43;;;;;;;25.34;45.56;101497.53;4995313;28;20060;-68
2023/09/16 01:16:16;;;;;;;22.88;13.82;;;;;;;25.51;45.12;101492.00;4995351;28;20573;-68
2023/09/16 01:18:47;;;;;;;22.70;13.50;;;;;;;25.49;44.97;101485.84;5012099;28;20149;-68
2023/09/16 01:21:14;;;;;;;23.95;14.07;;;;;;;25.59;44.74;101475.41;4994498;28;20454;-68
2023/09/16 01:23:40;;;;;;;21.17;12.77;;;;;;;25.08;45.27;101477.69;4992254;28;20042;-68
2023/09/16 01:26:06;;;;;;;21.77;12.07;;;;;;;25.41;45.07;101472.09;4975896;28;20029;-69
2023/09/16 01:28:32;;;;;;;22.92;13.20;;;;;;;25.43;44.51;101470.19;4975866;28;20030;-71
2023/09/16 01:30:58;;;;;;;19.38;12.20;;;;;;;25.40;45.15;101470.38;4975630;28;20508;-71
2023/09/16 01:33:38;;;;;;;20.73;12.95;;;;;;;25.21;44.90;101476.84;4993492;28;20441;-70
2023/09/16 01:36:09;;;;;;;22.63;12.15;;;;;;;25.08;45.55;101470.53;4991175;28;20025;-68
2023/09/16 01:38:37;;;;;;;19.83;12.52;;;;;;;25.42;44.92;101473.81;4975732;28;20109;-68
2023/09/16 01:41:04;;;;;;;20.45;12.82;;;;;;;25.16;45.46;101473.59;4975174;28;20027;-69
2023/09/16 01:43:31;;;;;;;19.35;11.60;;;;;;;24.74;45.61;101469.91;4991302;28;20030;-68
2023/09/16 01:45:56;;;;;;;20.05;11.50;;;;;;;24.84;45.46;101472.88;4993343;28;20030;-71
2023/09/16 01:48:22;;;;;;;21.15;12.38;;;;;;;24.70;46.39;101468.34;4993609;28;20029;-69
2023/09/16 01:50:48;;;;;;;20.75;12.10;;;;;;;24.76;46.48;101476.03;4992436;28;20022;-69
2023/09/16 01:53:13;;;;;;;18.92;11.65;;;;;;;24.90;45.92;101468.00;4975266;28;20019;-68
2023/09/16 01:55:39;;;;;;;20.92;12.27;;;;;;;25.14;45.71;101471.97;4975728;28;20027;-69
2023/09/16 01:58:06;;;;;;;23.02;13.70;;;;;;;25.15;45.36;101466.50;4974611;28;20021;-68
2023/09/16 02:00:31;;;;;;;20.52;11.60;;;;;;;25.05;45.61;101470.72;4991993;28;20458;-68
2023/09/16 02:02:57;;;;;;;23.27;11.70;;;;;;;25.28;44.44;101474.66;4974361;28;20068;-68
2023/09/16 02:05:22;;;;;;;22.27;12.18;;;;;;;25.41;44.80;101469.41;4993256;28;20122;-68
2023/09/16 02:07:47;;;;;;;18.67;11.45;;;;;;;25.61;44.73;101478.88;4992580;28;20439;-69
2023/09/16 02:10:13;;;;;;;21.83;11.57;;;;;;;25.72;44.14;101470.16;4973125;28;20486;-71
2023/09/16 02:12:38;;;;;;;18.20;10.65;;;;;;;25.76;43.88;101466.34;4992952;28;20041;-71
2023/09/16 02:15:06;;;;;;;17.73;10.73;;;;;;;25.70;44.37;101466.72;4992347;28;20045;-69
2023/09/16 02:17:31;;;;;;;18.70;10.93;;;;;;;25.59;44.32;101477.25;4974644;28;20101;-68
2023/09/16 02:19:57;;;;;;;17.10;11.27;;;;;;;25.63;44.59;101465.41;4992033;28;20101;-69
2023/09/16 02:22:22;;;;;;;21.00;10.95;;;;;;;25.01;45.55;101469.19;4975122;28;20384;-68
2023/09/16 02:24:48;;;;;;;17.02;10.23;;;;;;;24.89;45.39;101476.13;4974454;28;20052;-68
2023/09/16 02:27:13;;;;;;;16.55;10.10;;;;;;;25.37;44.74;101470.56;4990707;28;20015;-68
2023/09/16 02:29:39;;;;;;;15.13;9.18;;;;;;;25.28;44.79;101471.09;4975059;28;20161;-69
2023/09/16 02:32:04;;;;;;;19.50;10.75;;;;;;;25.56;44.54;101472.94;4990663;28;20026;-68
2023/09/16 02:34:32;;;;;;;18.95;10.27;;;;;;;25.75;44.49;101475.31;4974928;28;20038;-71
2023/09/16 02:36:59;;;;;;;15.10;10.00;;;;;;;25.62;44.62;101477.06;4974433;28;20028;-69
2023/09/16 02:39:24;;;;;;;17.65;9.90;;;;;;;25.48;44.76;101473.41;4974152;28;20022;-68
2023/09/16 02:41:49;;;;;;;15.43;10.00;;;;;;;25.84;43.97;101466.69;4990764;28;20080;-68
2023/09/16 02:44:15;;;;;;;17.10;9.80;;;;;;;25.32;44.80;101478.88;4992110;28;20037;-69
2023/09/16 02:46:40;;;;;;;16.60;9.75;;;;;;;25.61;44.65;101467.28;4974022;28;20029;-69
2023/09/16 02:49:06;;;;;;;16.30;9.65;;;;;;;25.23;44.70;101469.56;4974287;28;20076;-69
2023/09/16 02:51:32;;;;;;;13.73;9.10;;;;;;;25.29;44.53;101468.34;4992207;28;20448;-68
2023/09/16 02:53:58;;;;;;;13.90;7.75;;;;;;;25.65;43.99;101466.13;4973511;28;20026;-68
2023/09/16 02:56:23;;;;;;;13.57;8.52;;;;;;;25.49;44.24;101458.25;4992069;28;20160;-68
2023/09/16 02:58:49;;;;;;;15.48;9.30;;;;;;;25.13;45.19;101460.41;4991911;28;20049;-69
2023/09/16 03:01:14;;;;;;;14.52;8.85;;;;;;;25.51;43.72;101462.56;4991005;28;20030;-69
2023/09/16 03:03:40;;;;;;;13.98;8.38;;;;;;;25.50;44.40;101459.94;4991728;28;20094;-68
2023/09/16 03:06:05;;;;;;;16.90;9.07;;;;;;;25.19;44.82;101468.03;4990706;28;20502;-68
2023/09/16 03:08:31;;;;;;;20.08;9.27;;;;;;;24.93;45.20;101460.78;4990327;28;20431;-69
2023/09/16 03:11:02;;;;;;;18.80;9.57;;;;;;;25.53;44.45;101460.63;4991738;28;20034;-69
2023/09/16 03:13:27;;;;;;;12.88;8.43;;;;;;;25.18;44.79;101461.00;4989566;28;20058;-69
2023/09/16 03:16:21;;;;;;;14.70;8.90;;;;;;;25.08;44.86;101459.84;4973518;28;20129;-68
2023/09/16 03:18:49;;;;;;;13.38;8.07;;;;;;;24.85;45.23;101448.75;4974170;28;20637;-69
2023/09/16 03:21:15;;;;;;;14.60;9.13;;;;;;;25.00;45.02;101456.78;4972491;28;20026;-69
2023/09/16 03:23:42;;;;;;;15.55;8.90;;;;;;;24.81;44.98;101452.56;5004885;28;20046;-69
2023/09/16 03:26:09;;;;;;;13.32;8.10;;;;;;;25.16;44.55;101457.53;4992976;28;20121;-71
2023/09/16 03:28:35;;;;;;;14.35;8.82;;;;;;;25.17;44.65;101453.91;4992588;28;20421;-69
2023/09/16 03:31:00;;;;;;;17.75;8.77;;;;;;;25.12;44.69;101450.66;5010440;28;20056;-68
2023/09/16 03:33:25;;;;;;;15.10;9.23;;;;;;;24.89;45.42;101444.94;4993284;28;20026;-69
2023/09/16 03:35:51;;;;;;;14.00;8.57;;;;;;;24.90;45.30;101446.63;5008352;28;20041;-68
2023/09/16 03:38:17;;;;;;;15.10;8.82;;;;;;;24.75;45.66;101436.03;4993162;28;20029;-68
2023/09/16 03:40:42;;;;;;;12.15;8.07;;;;;;;24.87;45.41;101446.81;4993091;28;20398;-69
2023/09/16 03:43:07;;;;;;;14.85;8.32;;;;;;;24.77;46.03;101432.31;4992230;28;20022;-68
2023/09/16 03:45:33;;;;;;;15.25;9.10;;;;;;;24.55;46.20;101435.34;5010751;28;20417;-69
2023/09/16 03:47:58;;;;;;;15.40;8.82;;;;;;;24.76;45.38;101435.94;4992682;28;20478;-69
2023/09/16 03:50:24;;;;;;;15.77;9.65;;;;;;;24.53;45.87;101437.28;5009801;28;20482;-69
2023/09/16 03:52:53;;;;;;;16.25;10.18;;;;;;;24.21;47.24;101427.53;5009347;28;20030;-68
2023/09/16 03:55:18;;;;;;;16.95;8.88;;;;;;;24.20;47.03;101436.47;5009967;28;20079;-69
2023/09/16 03:57:43;;;;;;;13.32;8.82;;;;;;;24.02;47.99;101437.56;4992831;28;20072;-69
2023/09/16 04:00:10;;;;;;;13.55;8.95;;;;;;;24.18;46.91;101443.75;4992400;28;20458;-69
2023/09/16 04:02:36;;;;;;;17.30;10.57;;;;;;;24.56;46.59;101440.63;5008796;28;20427;-69
2023/09/16 04:05:02;;;;;;;16.35;9.80;;;;;;;24.74;45.67;101435.16;5008587;28;20026;-68
2023/09/16 04:07:27;;;;;;;17.33;9.93;;;;;;;24.54;46.40;101444.34;5010635;28;20068;-68
2023/09/16 04:09:53;;;;;;;17.75;9.93;;;;;;;24.40;46.59;101442.50;4991665;28;20057;-68
2023/09/16 04:12:18;;;;;;;19.33;9.55;;;;;;;24.38;47.01;101433.69;5010503;28;20045;-69
2023/09/16 04:14:43;;;;;;;16.90;9.57;;;;;;;24.43;46.62;101436.97;4992626;28;20022;-69
2023/09/16 04:17:09;;;;;;;18.15;9.95;;;;;;;24.06;47.66;101433.78;5007876;28;20014;-68
2023/09/16 04:19:34;;;;;;;19.90;10.05;;;;;;;24.39;46.40;101440.75;5010136;28;20033;-68
2023/09/16 04:22:00;;;;;;;21.02;10.70;;;;;;;24.38;46.62;101441.72;5008173;28;20390;-69
2023/09/16 04:24:25;;;;;;;15.80;10.32;;;;;;;24.26;46.72;101440.59;5009338;28;20064;-69
2023/09/16 04:26:51;;;;;;;19.63;10.57;;;;;;;24.09;47.43;101438.91;5008556;28;20501;-71
2023/09/16 04:29:16;;;;;;;19.60;10.35;;;;;;;23.99;47.59;101443.09;4992639;28;20095;-69
2023/09/16 04:31:41;;;;;;;17.50;10.15;;;;;;;24.22;47.35;101434.59;4991091;28;20030;-71
2023/09/16 04:34:07;;;;;;;16.33;11.27;;;;;;;23.99;47.73;101432.41;5008420;28;20033;-70
2023/09/16 04:36:32;;;;;;;16.25;10.43;;;;;;;23.94;47.65;101437.13;5009870;28;20033;-70
2023/09/16 04:38:57;;;;;;;16.65;10.10;;;;;;;24.03;47.86;101431.28;4991414;28;20021;-69
2023/09/16 04:41:24;;;;;;;17.98;10.93;;;;;;;24.05;47.54;101432.03;5008694;28;20033;-69
2023/09/16 04:43:49;;;;;;;22.30;10.75;;;;;;;24.08;47.48;101431.84;4992101;28;20127;-69
2023/09/16 04:46:18;;;;;;;22.38;11.25;;;;;;;24.05;47.56;101437.38;5008729;28;20060;-69
2023/09/16 04:48:44;;;;;;;17.30;10.65;;;;;;;24.16;47.61;101432.28;4992328;28;20034;-69
2023/09/16 04:51:09;;;;;;;19.45;11.30;;;;;;;24.07;47.69;101430.16;5008154;28;20509;-69
2023/09/16 04:53:35;;;;;;;17.67;10.88;;;;;;;24.14;47.54;101430.63;5009149;28;20056;-69
2023/09/16 04:56:01;;;;;;;18.05;10.77;;;;;;;23.82;48.25;101428.84;5008437;28;20173;-69
2023/09/16 04:58:27;;;;;;;19.73;10.95;;;;;;;23.86;48.09;101425.06;4992152;28;20029;-69
2023/09/16 05:00:52;;;;;;;19.10;11.65;;;;;;;23.82;48.33;101425.31;5007423;28;20033;-69
2023/09/16 05:03:18;;;;;;;18.10;9.32;;;;;;;24.06;47.78;101428.44;5009859;28;20483;-69
2023/09/16 05:05:46;;;;;;;22.05;10.50;;;;;;;24.04;47.84;101424.97;4991429;28;20030;-69
2023/09/16 05:08:11;;;;;;;17.60;10.77;;;;;;;23.96;47.81;101422.75;5007982;28;20121;-69
2023/09/16 05:10:36;;;;;;;23.27;11.68;;;;;;;23.69;49.00;101425.16;5008413;28;20124;-69
2023/09/16 05:13:03;;;;;;;20.20;10.95;;;;;;;23.54;48.40;101419.72;5007217;28;20381;-69
2023/09/16 05:15:28;;;;;;;17.98;10.77;;;;;;;23.96;47.59;101421.88;4992005;28;20065;-69
2023/09/16 05:17:54;;;;;;;20.08;11.32;;;;;;;23.86;48.14;101421.50;5007947;28;20022;-69
2023/09/16 05:20:19;;;;;;;22.00;11.00;;;;;;;23.44;49.04;101415.84;5008710;28;20465;-69
2023/09/16 05:22:47;;;;;;;17.15;10.63;;;;;;;23.97;47.87;101423.59;5008360;28;20553;-69
2023/09/16 05:25:12;;;;;;;19.70;10.45;;;;;;;23.97;47.70;101428.94;5009214;28;20446;-69
2023/09/16 05:27:38;;;;;;;20.20;11.45;;;;;;;23.76;48.24;101442.53;4991189;28;20060;-69
2023/09/16 05:30:04;;;;;;;22.65;12.13;;;;;;;23.23;49.81;101427.66;5007714;28;20087;-69
2023/09/16 05:32:29;;;;;;;20.27;11.32;;;;;;;23.42;49.30;101433.72;5009390;28;20038;-68
2023/09/16 05:34:55;;;;;;;20.58;11.63;;;;;;;23.50;49.46;101426.16;5007042;28;20040;-69
2023/09/16 05:37:20;;;;;;;19.70;11.50;;;;;;;23.61;48.67;101427.38;5007975;28;20033;-69
2023/09/16 05:39:45;;;;;;;19.80;10.52;;;;;;;23.45;49.54;101428.25;5008141;28;20116;-69
2023/09/16 05:42:11;;;;;;;16.90;10.82;;;;;;;23.46;49.45;101427.28;5007081;28;20493;-69
2023/09/16 05:44:36;;;;;;;22.30;10.95;;;;;;;23.54;49.27;101433.03;5012493;28;20453;-69
2023/09/16 05:47:02;;;;;;;23.45;11.38;;;;;;;23.66;49.02;101431.50;5011517;28;20038;-69
2023/09/16 05:49:27;;;;;;;20.83;11.13;;;;;;;23.64;49.31;101441.41;4994610;28;20046;-69
2023/09/16 05:51:53;;;;;;;19.92;12.10;;;;;;;23.45;49.82;101444.25;5012206;28;20036;-68
2023/09/16 05:54:18;;;;;;;16.80;10.05;;;;;;;23.54;49.53;101441.03;5012676;28;20030;-69
2023/09/16 05:56:46;;;;;;;23.05;12.15;;;;;;;23.14;50.02;101435.22;5010818;28;20022;-69
2023/09/16 05:59:15;;;;;;;22.35;12.38;;;;;;;23.60;49.45;101439.00;4994531;28;20037;-69
2023/09/16 06:01:40;;;;;;;22.85;13.10;;;;;;;23.54;49.30;101438.38;4994984;28;20434;-69
2023/09/16 06:04:08;;;;;;;20.50;11.68;;;;;;;23.69;49.30;101443.81;5010047;28;20124;-69
2023/09/16 06:06:34;;;;;;;22.30;11.65;;;;;;;23.60;49.33;101441.66;5011449;28;20061;-69
2023/09/16 06:08:59;;;;;;;19.48;10.70;;;;;;;23.80;49.17;101454.75;5010133;28;20061;-69
2023/09/16 06:11:28;;;;;;;21.80;12.07;;;;;;;23.62;49.27;101445.97;5012294;28;20030;-69
2023/09/16 06:13:54;;;;;;;19.08;11.45;;;;;;;23.54;49.90;101449.06;5010544;28;20026;-69
2023/09/16 06:16:20;;;;;;;19.75;11.52;;;;;;;23.76;49.36;101463.88;4993536;28;20053;-69
2023/09/16 06:18:45;;;;;;;26.40;12.55;;;;;;;23.65;49.21;101460.94;5012479;28;20068;-69
2023/09/16 06:21:11;;;;;;;21.60;12.70;;;;;;;24.01;48.82;101473.22;5011942;28;20108;-69
2023/09/16 06:23:37;;;;;;;18.75;11.40;;;;;;;23.76;49.28;101469.22;4990183;28;20418;-69
2023/09/16 06:26:02;;;;;;;19.98;11.75;;;;;;;23.91;49.27;101483.56;4990631;28;20022;-69
2023/09/16 06:28:27;;;;;;;18.23;11.80;;;;;;;24.04;48.87;101473.03;4992165;28;20033;-69
2023/09/16 06:30:53;;;;;;;21.83;12.80;;;;;;;24.11;48.99;101479.75;4990049;28;20037;-69
2023/09/16 06:33:18;;;;;;;21.58;11.60;;;;;;;24.33;48.18;101481.19;4992283;28;20030;-69
2023/09/16 06:35:44;;;;;;;23.45;12.70;;;;;;;24.02;48.85;101481.13;4992456;28;20030;-69
2023/09/16 06:38:09;;;;;;;22.70;12.02;;;;;;;23.96;48.69;101475.28;4991016;28;20398;-69
2023/09/16 06:40:35;;;;;;;22.23;12.02;;;;;;;24.13;48.80;101472.50;4991267;28;20030;-69
2023/09/16 06:43:00;;;;;;;17.27;11.07;;;;;;;24.13;48.97;101475.19;4990075;28;20386;-69
2023/09/16 06:45:26;;;;;;;24.08;12.93;;;;;;;24.21;48.71;101475.59;4990288;28;20030;-69
2023/09/16 06:47:51;;;;;;;22.45;11.38;;;;;;;24.55;47.87;101464.75;4974041;28;20065;-69
2023/09/16 06:50:16;;;;;;;20.13;12.43;;;;;;;24.45;48.26;101469.78;4992091;28;20034;-69
2023/09/16 06:52:42;;;;;;;22.33;12.80;;;;;;;24.70;47.98;101468.34;4991174;28;20026;-69
2023/09/16 06:55:08;;;;;;;21.27;12.82;;;;;;;24.65;47.77;101468.63;4973190;28;20041;-69
2023/09/16 06:57:33;;;;;;;21.85;11.27;;;;;;;24.58;47.89;101466.38;4974334;28;20033;-69
2023/09/16 06:59:58;;;;;;;18.10;11.63;;;;;;;24.38;48.70;101471.09;4990571;28;20105;-69
2023/09/16 07:02:24;;;;;;;22.50;13.02;;;;;;;24.52;48.39;101471.16;4991901;28;20022;-69
2023/09/16 07:04:50;;;;;;;14.57;10.57;;;;;;;24.84;47.54;101473.75;4974506;28;20026;-69
2023/09/16 07:07:17;;;;;;;20.05;12.45;;;;;;;24.69;47.97;101470.19;4973824;28;20105;-69
2023/09/16 07:09:42;;;;;;;19.77;11.45;;;;;;;24.54;49.11;101477.25;4973919;28;20030;-69
2023/09/16 07:12:08;;;;;;;18.88;12.45;;;;;;;25.26;47.14;101467.69;4973856;28;20026;-69
2023/09/16 07:14:37;;;;;;;19.23;11.43;;;;;;;25.36;47.25;101480.44;4990847;28;20026;-69
2023/09/16 07:17:03;;;;;;;22.55;11.77;;;;;;;25.39;46.98;101480.22;4991069;28;20037;-69
2023/09/16 07:19:28;;;;;;;20.95;12.73;;;;;;;25.20;47.39;101475.13;4990850;28;20042;-69
2023/09/16 07:21:54;;;;;;;23.88;13.23;;;;;;;25.61;46.87;101468.16;4989655;28;20022;-69
2023/09/16 07:24:19;;;;;;;24.83;12.32;;;;;;;25.88;46.28;101473.56;5010081;28;20494;-69
2023/09/16 07:26:45;;;;;;;20.25;11.70;;;;;;;26.04;45.98;101475.28;5008931;28;20030;-69
2023/09/16 07:29:10;;;;;;;21.52;12.55;;;;;;;25.87;46.46;101479.00;5009250;28;20318;-69
2023/09/16 07:31:36;;;;;;;20.15;11.73;;;;;;;26.22;45.53;101467.84;5010832;28;20026;-69
2023/09/16 07:34:01;;;;;;;20.48;12.23;;;;;;;26.02;46.40;101475.38;5009491;28;20176;-69
2023/09/16 07:36:27;;;;;;;20.48;11.82;;;;;;;27.42;44.64;101469.50;5010695;28;20032;-69
2023/09/16 07:38:52;;;;;;;20.10;11.77;;;;;;;28.30;43.09;101473.03;5008676;28;20115;-69
2023/09/16 07:41:18;;;;;;;19.25;11.43;;;;;;;29.88;40.03;101470.59;5008650;28;20030;-70
2023/09/16 07:43:44;;;;;;;15.13;10.05;;;;;;;30.85;37.28;101474.22;4992830;28;20033;-69
2023/09/16 07:46:09;;;;;;;13.68;8.70;;;;;;;31.29;35.22;101473.03;5008830;28;20033;-69
2023/09/16 07:48:34;;;;;;;16.27;8.52;;;;;;;32.13;33.76;101476.41;5008357;28;20463;-69
2023/09/16 07:51:00;;;;;;;15.05;8.57;;;;;;;31.75;34.51;101461.84;5010000;28;20025;-69
2023/09/16 07:53:25;;;;;;;12.43;7.35;;;;;;;31.84;35.34;101471.81;5010193;28;20022;-69
2023/09/16 07:55:51;;;;;;;12.35;8.35;;;;;;;32.32;33.89;101482.88;4992152;28;20781;-69
2023/09/16 07:58:16;;;;;;;13.15;7.88;;;;;;;33.44;32.31;101479.50;4992616;28;20188;-69
2023/09/16 08:00:43;;;;;;;13.00;7.57;;;;;;;32.90;32.31;101485.50;5009067;28;20144;-69
2023/09/16 08:03:08;;;;;;;13.98;8.40;;;;;;;32.16;34.12;101486.97;4991281;28;20061;-69
2023/09/16 08:05:34;;;;;;;16.83;8.70;;;;;;;32.06;33.95;101486.09;4992930;28;20501;-70
2023/09/16 08:07:59;;;;;;;12.75;7.53;;;;;;;31.54;35.60;101499.72;4991374;28;20025;-69
2023/09/16 08:10:24;;;;;;;11.38;7.25;;;;;;;31.17;35.45;101501.13;5008150;28;20025;-69
2023/09/16 08:12:50;;;;;;;13.38;7.82;;;;;;;30.75;36.27;101498.44;5010139;28;20084;-69
2023/09/16 08:15:16;;;;;;;11.70;7.13;;;;;;;30.74;36.48;101494.03;4992159;28;20032;-69
2023/09/16 08:17:42;;;;;;;13.10;8.13;;;;;;;30.83;36.46;101495.06;4991931;28;20026;-69
2023/09/16 08:20:08;;;;;;;18.10;7.90;;;;;;;29.09;39.37;101500.19;4992083;28;20109;-69
2023/09/16 08:22:34;;;;;;;13.00;7.82;;;;;;;30.15;37.67;101489.97;5009008;28;20058;-69
2023/09/16 08:25:00;;;;;;;12.50;7.32;;;;;;;30.84;36.87;101496.78;5009570;28;20044;-69
2023/09/16 08:27:28;;;;;;;13.77;8.18;;;;;;;30.76;37.56;101502.84;5008496;28;20065;-69
2023/09/16 08:29:54;;;;;;;12.45;8.05;;;;;;;31.06;36.81;101503.91;5007498;28;20076;-69
2023/09/16 08:32:22;;;;;;;13.80;7.70;;;;;;;30.96;36.67;101499.28;5008683;28;20061;-69
2023/09/16 08:34:49;;;;;;;13.50;7.57;;;;;;;30.96;37.04;101501.97;5009935;28;20079;-69
2023/09/16 08:37:14;;;;;;;14.20;9.20;;;;;;;30.09;38.29;101499.44;5009320;28;20022;-69
2023/09/16 08:39:40;;;;;;;14.10;8.20;;;;;;;30.21;38.50;101497.53;5008254;28;20132;-69
2023/09/16 08:42:12;;;;;;;13.38;8.32;;;;;;;30.73;37.97;101498.56;4991888;28;20029;-69
2023/09/16 08:44:42;;;;;;;14.00;8.15;;;;;;;30.77;36.94;101504.56;4991655;28;20022;-69
2023/09/16 08:47:20;;;;;;;11.95;7.88;;;;;;;30.55;38.05;101500.13;5009518;28;20021;-69
2023/09/16 08:49:52;;;;;;;12.75;8.68;;;;;;;30.04;38.53;101512.44;5008622;28;20398;-69
2023/09/16 08:52:19;;;;;;;14.70;8.30;;;;;;;29.89;39.13;101504.59;4991395;28;20033;-69
2023/09/16 08:54:47;;;;;;;14.73;8.80;;;;;;;30.43;38.17;101516.34;4991840;28;20315;-69
2023/09/16 08:57:14;;;;;;;15.85;8.73;;;;;;;29.76;39.26;101515.50;4991667;28;20544;-69
2023/09/16 08:59:40;;;;;;;14.90;8.85;;;;;;;30.33;38.42;101515.38;4991500;28;20030;-69
2023/09/16 09:02:08;;;;;;;15.00;8.13;;;;;;;30.37;39.14;101518.69;4991365;28;20080;-69
2023/09/16 09:04:34;;;;;;;17.73;9.18;;;;;;;30.34;38.91;101532.44;4992119;28;20032;-69
2023/09/16 09:07:01;;;;;;;15.75;9.32;;;;;;;31.08;37.57;101513.59;4990675;28;20037;-69
2023/09/16 09:09:26;;;;;;;12.13;8.27;;;;;;;31.69;36.78;101521.84;4992194;28;20046;-69
2023/09/16 09:11:55;;;;;;;12.63;7.82;;;;;;;31.52;36.24;101521.47;4990848;28;20150;-69
2023/09/16 09:14:23;;;;;;;13.45;8.73;;;;;;;31.18;36.42;101524.44;5009439;28;20084;-69
2023/09/16 09:16:49;;;;;;;12.60;7.72;;;;;;;30.57;37.87;101526.00;4991727;28;20437;-69
2023/09/16 09:19:15;;;;;;;12.65;7.95;;;;;;;30.69;37.61;101534.03;4993215;28;20373;-69
2023/09/16 09:21:43;;;;;;;15.32;8.55;;;;;;;30.50;37.99;101529.34;4995801;28;20029;-69
2023/09/16 09:24:08;;;;;;;10.90;7.25;;;;;;;31.04;36.39;101522.09;4994887;28;20046;-69
2023/09/16 09:26:34;;;;;;;10.95;7.10;;;;;;;31.56;36.67;101525.63;5011383;28;20390;-69
2023/09/16 09:29:00;;;;;;;12.90;7.45;;;;;;;30.79;37.36;101526.88;4994878;28;20163;-69
2023/09/16 09:31:26;;;;;;;12.98;7.55;;;;;;;30.03;38.93;101526.88;4995393;28;20048;-69
2023/09/16 09:33:53;;;;;;;13.90;6.97;;;;;;;31.19;37.45;101526.16;5012084;28;20037;-69
2023/09/16 09:36:19;;;;;;;11.55;6.53;;;;;;;30.89;38.06;101530.47;5012992;28;20497;-69
2023/09/16 09:38:45;;;;;;;11.38;7.05;;;;;;;31.65;36.47;101526.66;5013167;28;20046;-69
2023/09/16 09:41:12;;;;;;;11.88;6.75;;;;;;;32.49;35.56;101525.41;5011934;28;20907;-69
2023/09/16 09:43:37;;;;;;;12.00;7.20;;;;;;;32.71;34.71;101528.84;4994989;28;20032;-70
2023/09/16 09:46:03;;;;;;;9.23;6.60;;;;;;;32.29;34.39;101533.53;5012300;28;20033;-70
2023/09/16 09:48:33;;;;;;;10.32;6.10;;;;;;;32.40;35.32;101529.00;4994431;28;20018;-70
2023/09/16 09:50:59;;;;;;;12.82;7.20;;;;;;;33.18;33.70;101531.63;5012471;28;20069;-69
2023/09/16 09:53:26;;;;;;;10.25;6.03;;;;;;;31.67;35.60;101530.09;4994978;28;20028;-69
2023/09/16 09:55:53;;;;;;;11.30;6.57;;;;;;;32.04;35.15;101536.72;5011581;28;20033;-69
2023/09/16 09:58:18;;;;;;;9.50;5.97;;;;;;;32.34;35.07;101526.84;5012593;28;20367;-69
2023/09/16 10:00:48;;;;;;;9.35;6.28;;;;;;;32.25;35.20;101534.78;4994928;28;20018;-69
2023/09/16 10:03:16;;;;;;;9.75;5.60;;;;;;;32.52;34.99;101546.78;5011430;28;20044;-70
2023/09/16 10:05:41;;;;;;;10.55;6.47;;;;;;;32.49;34.81;101541.63;4994870;28;20509;-70
2023/09/16 10:08:07;;;;;;;10.13;6.82;;;;;;;31.81;35.80;101547.78;4993718;28;20030;-69
2023/09/16 10:10:34;;;;;;;12.43;6.28;;;;;;;32.63;34.89;101543.94;4994641;28;20496;-70
2023/09/16 10:13:00;;;;;;;10.98;5.70;;;;;;;32.28;35.00;101539.91;4994375;28;20401;-70
2023/09/16 10:15:28;;;;;;;11.13;6.63;;;;;;;32.07;34.50;101536.47;5011529;28;20052;-69
2023/09/16 10:17:53;;;;;;;9.10;6.13;;;;;;;32.09;34.70;101538.00;4994059;28;20014;-69
2023/09/16 10:20:19;;;;;;;11.27;6.00;;;;;;;31.87;35.17;101538.25;5011185;28;20077;-69
2023/09/16 10:22:45;;;;;;;9.63;5.63;;;;;;;32.63;34.49;101533.09;4990230;28;20049;-69
2023/09/16 10:25:14;;;;;;;8.68;5.93;;;;;;;32.88;34.63;101525.41;4974402;28;20388;-69
2023/09/16 10:28:00;;;;;;;9.60;5.35;;;;;;;32.70;34.24;101522.59;4992488;28;20394;-69
2023/09/16 10:30:27;;;;;;;10.57;5.57;;;;;;;32.06;35.10;101518.53;4973123;28;20026;-69
2023/09/16 10:32:53;;;;;;;11.25;5.90;;;;;;;31.43;35.59;101522.28;4990534;28;20033;-69
2023/09/16 10:35:19;;;;;;;8.35;5.63;;;;;;;31.36;36.02;101523.81;4990909;28;20030;-69
2023/09/16 10:37:47;;;;;;;8.93;5.47;;;;;;;31.35;35.64;101519.41;4991710;28;20478;-70
2023/09/16 10:40:15;;;;;;;8.40;5.43;;;;;;;32.34;34.54;101522.28;4974343;28;20030;-69
2023/09/16 10:42:41;;;;;;;9.70;5.38;;;;;;;32.51;34.59;101522.56;4990963;28;20121;-69
2023/09/16 10:45:11;;;;;;;7.30;4.70;;;;;;;32.08;33.89;101521.94;4991021;28;20112;-70
2023/09/16 10:47:36;;;;;;;8.93;4.72;;;;;;;31.99;34.71;101517.38;4974492;28;20026;-69
2023/09/16 10:50:02;;;;;;;6.40;3.60;;;;;;;33.30;33.21;101518.75;4991287;28;20037;-69
2023/09/16 10:52:51;;;;;;;7.05;4.35;;;;;;;33.16;32.54;101511.94;4991301;28;20018;-70
2023/09/16 10:55:34;;;;;;;6.32;3.42;;;;;;;32.77;32.26;101514.75;4974582;28;20093;-69
2023/09/16 10:58:22;;;;;;;5.50;3.30;;;;;;;33.48;31.57;101503.44;4973301;28;20034;-69
2023/09/16 11:00:54;;;;;;;6.10;3.63;;;;;;;33.07;31.75;101512.81;4973763;28;20474;-70
2023/09/16 11:03:21;;;;;;;7.75;3.72;;;;;;;33.83;30.79;101498.28;4974445;28;20486;-69
2023/09/16 11:05:46;;;;;;;5.28;3.35;;;;;;;32.48;32.04;101502.09;4989828;28;20030;-69
2023/09/16 11:08:12;;;;;;;5.03;3.25;;;;;;;32.81;32.45;101494.53;4973829;28;20034;-69
2023/09/16 11:10:38;;;;;;;4.28;3.15;;;;;;;33.58;31.05;101487.13;4974179;28;20030;-69